sensor_id;sensor_type;location;lat;lon;timestamp;temperature;humidity
76172;DHT22;64929;51.178;4.138;2024-02-26T00:01:56;8.50;99.90
76172;DHT22;64929;51.178;4.138;2024-02-26T00:04:22;8.30;99.90
76172;DHT22;64929;51.178;4.138;2024-02-26T00:06:48;8.50;99.90
76172;DHT22;64929;51.178;4.138;2024-02-26T00:09:15;8.30;99.90
76172;DHT22;64929;51.178;4.138;2024-02-26T00:11:41;8.30;99.90
76172;DHT22;64929;51.178;4.138;2024-02-26T00:14:07;8.40;99.90
76172;DHT22;64929;51.178;4.138;2024-02-26T00:16:32;8.30;99.90
76172;DHT22;64929;51.178;4.138;2024-02-26T00:18:58;8.30;99.90
76172;DHT22;64929;51.178;4.138;2024-02-26T00:21:24;8.40;99.90
76172;DHT22;64929;51.178;4.138;2024-02-26T00:23:50;8.20;99.90
76172;DHT22;64929;51.178;4.138;2024-02-26T00:26:18;8.20;99.90
76172;DHT22;64929;51.178;4.138;2024-02-26T00:28:44;8.20;99.90
76172;DHT22;64929;51.178;4.138;2024-02-26T00:31:10;8.10;99.90
76172;DHT22;64929;51.178;4.138;2024-02-26T00:33:36;8.20;99.90
76172;DHT22;64929;51.178;4.138;2024-02-26T00:36:01;8.10;99.90
76172;DHT22;64929;51.178;4.138;2024-02-26T00:38:27;8.10;99.90
76172;DHT22;64929;51.178;4.138;2024-02-26T00:40:53;8.10;99.90
76172;DHT22;64929;51.178;4.138;2024-02-26T00:43:19;8.10;99.90
76172;DHT22;64929;51.178;4.138;2024-02-26T00:45:44;8.10;99.90
76172;DHT22;64929;51.178;4.138;2024-02-26T00:48:12;8.10;99.90
76172;DHT22;64929;51.178;4.138;2024-02-26T00:50:39;8.00;99.90
76172;DHT22;64929;51.178;4.138;2024-02-26T00:53:05;8.00;99.90
76172;DHT22;64929;51.178;4.138;2024-02-26T00:55:31;8.00;99.90
76172;DHT22;64929;51.178;4.138;2024-02-26T00:57:57;8.00;99.90
76172;DHT22;64929;51.178;4.138;2024-02-26T01:00:22;8.00;99.90
76172;DHT22;64929;51.178;4.138;2024-02-26T01:02:48;8.00;99.90
76172;DHT22;64929;51.178;4.138;2024-02-26T01:05:14;8.00;99.90
76172;DHT22;64929;51.178;4.138;2024-02-26T01:07:40;8.10;99.90
76172;DHT22;64929;51.178;4.138;2024-02-26T01:10:06;8.00;99.90
76172;DHT22;64929;51.178;4.138;2024-02-26T01:12:33;8.00;99.90
76172;DHT22;64929;51.178;4.138;2024-02-26T01:15:00;7.90;99.90
76172;DHT22;64929;51.178;4.138;2024-02-26T01:17:26;7.80;99.90
76172;DHT22;64929;51.178;4.138;2024-02-26T01:19:51;7.70;99.90
76172;DHT22;64929;51.178;4.138;2024-02-26T01:22:19;7.70;99.90
76172;DHT22;64929;51.178;4.138;2024-02-26T01:24:44;7.80;99.90
76172;DHT22;64929;51.178;4.138;2024-02-26T01:27:10;7.70;99.90
76172;DHT22;64929;51.178;4.138;2024-02-26T01:29:36;7.80;99.90
76172;DHT22;64929;51.178;4.138;2024-02-26T01:32:02;7.80;99.90
76172;DHT22;64929;51.178;4.138;2024-02-26T01:34:28;7.80;99.90
76172;DHT22;64929;51.178;4.138;2024-02-26T01:36:53;7.70;99.90
76172;DHT22;64929;51.178;4.138;2024-02-26T01:39:21;7.60;99.90
76172;DHT22;64929;51.178;4.138;2024-02-26T01:41:47;7.60;99.90
76172;DHT22;64929;51.178;4.138;2024-02-26T01:44:13;7.60;99.90
76172;DHT22;64929;51.178;4.138;2024-02-26T01:46:39;7.60;99.90
76172;DHT22;64929;51.178;4.138;2024-02-26T01:49:05;7.70;99.90
76172;DHT22;64929;51.178;4.138;2024-02-26T01:51:31;7.60;99.90
76172;DHT22;64929;51.178;4.138;2024-02-26T01:53:58;7.60;99.90
76172;DHT22;64929;51.178;4.138;2024-02-26T01:56:25;7.70;99.90
76172;DHT22;64929;51.178;4.138;2024-02-26T01:58:56;7.60;99.90
76172;DHT22;64929;51.178;4.138;2024-02-26T02:01:25;7.60;99.90
76172;DHT22;64929;51.178;4.138;2024-02-26T02:03:53;7.60;99.90
76172;DHT22;64929;51.178;4.138;2024-02-26T02:06:19;7.60;99.90
76172;DHT22;64929;51.178;4.138;2024-02-26T02:08:46;7.60;99.90
76172;DHT22;64929;51.178;4.138;2024-02-26T02:11:12;7.50;99.90
76172;DHT22;64929;51.178;4.138;2024-02-26T02:13:38;7.50;99.90
76172;DHT22;64929;51.178;4.138;2024-02-26T02:16:04;7.50;99.90
76172;DHT22;64929;51.178;4.138;2024-02-26T02:18:30;7.60;99.90
76172;DHT22;64929;51.178;4.138;2024-02-26T02:20:55;7.50;99.90
76172;DHT22;64929;51.178;4.138;2024-02-26T02:23:24;7.60;99.90
76172;DHT22;64929;51.178;4.138;2024-02-26T02:25:51;7.70;99.90
76172;DHT22;64929;51.178;4.138;2024-02-26T02:28:16;7.60;99.90
76172;DHT22;64929;51.178;4.138;2024-02-26T02:30:42;7.50;99.90
76172;DHT22;64929;51.178;4.138;2024-02-26T02:33:09;7.50;99.90
76172;DHT22;64929;51.178;4.138;2024-02-26T02:35:37;7.50;99.90
76172;DHT22;64929;51.178;4.138;2024-02-26T02:38:03;7.50;99.90
76172;DHT22;64929;51.178;4.138;2024-02-26T02:40:29;7.40;99.90
76172;DHT22;64929;51.178;4.138;2024-02-26T02:42:54;7.40;99.90
76172;DHT22;64929;51.178;4.138;2024-02-26T02:45:20;7.30;99.90
76172;DHT22;64929;51.178;4.138;2024-02-26T02:47:46;7.40;99.90
76172;DHT22;64929;51.178;4.138;2024-02-26T02:50:12;7.40;99.90
76172;DHT22;64929;51.178;4.138;2024-02-26T02:52:37;7.40;99.90
76172;DHT22;64929;51.178;4.138;2024-02-26T02:55:03;7.50;99.90
76172;DHT22;64929;51.178;4.138;2024-02-26T02:57:30;7.30;99.90
76172;DHT22;64929;51.178;4.138;2024-02-26T02:59:56;7.30;99.90
76172;DHT22;64929;51.178;4.138;2024-02-26T03:02:21;7.30;99.90
76172;DHT22;64929;51.178;4.138;2024-02-26T03:04:50;7.30;99.90
76172;DHT22;64929;51.178;4.138;2024-02-26T03:07:16;7.20;99.90
76172;DHT22;64929;51.178;4.138;2024-02-26T03:09:41;7.10;99.90
76172;DHT22;64929;51.178;4.138;2024-02-26T03:12:07;7.10;99.90
76172;DHT22;64929;51.178;4.138;2024-02-26T03:14:33;7.10;99.90
76172;DHT22;64929;51.178;4.138;2024-02-26T03:16:59;7.10;99.90
76172;DHT22;64929;51.178;4.138;2024-02-26T03:19:24;7.20;99.90
76172;DHT22;64929;51.178;4.138;2024-02-26T03:21:50;7.20;99.90
76172;DHT22;64929;51.178;4.138;2024-02-26T03:24:16;7.10;99.90
76172;DHT22;64929;51.178;4.138;2024-02-26T03:26:42;7.10;99.90
76172;DHT22;64929;51.178;4.138;2024-02-26T03:29:07;7.20;99.90
76172;DHT22;64929;51.178;4.138;2024-02-26T03:31:33;7.20;99.90
76172;DHT22;64929;51.178;4.138;2024-02-26T03:33:59;7.30;99.90
76172;DHT22;64929;51.178;4.138;2024-02-26T03:36:24;7.30;99.90
76172;DHT22;64929;51.178;4.138;2024-02-26T03:38:50;7.30;99.90
76172;DHT22;64929;51.178;4.138;2024-02-26T03:41:16;7.30;99.90
76172;DHT22;64929;51.178;4.138;2024-02-26T03:43:41;7.30;99.90
76172;DHT22;64929;51.178;4.138;2024-02-26T03:46:08;7.30;99.90
76172;DHT22;64929;51.178;4.138;2024-02-26T03:48:35;7.30;99.90
76172;DHT22;64929;51.178;4.138;2024-02-26T03:51:00;7.30;99.90
76172;DHT22;64929;51.178;4.138;2024-02-26T03:53:26;7.40;99.90
76172;DHT22;64929;51.178;4.138;2024-02-26T03:55:52;7.40;99.90
76172;DHT22;64929;51.178;4.138;2024-02-26T03:58:18;7.40;99.90
76172;DHT22;64929;51.178;4.138;2024-02-26T04:00:43;7.40;99.90
76172;DHT22;64929;51.178;4.138;2024-02-26T04:03:10;7.30;99.90
76172;DHT22;64929;51.178;4.138;2024-02-26T04:05:36;7.30;99.90
76172;DHT22;64929;51.178;4.138;2024-02-26T04:08:01;7.20;99.90
76172;DHT22;64929;51.178;4.138;2024-02-26T04:10:29;7.10;99.90
76172;DHT22;64929;51.178;4.138;2024-02-26T04:12:55;7.00;99.90
76172;DHT22;64929;51.178;4.138;2024-02-26T04:15:21;7.20;99.90
76172;DHT22;64929;51.178;4.138;2024-02-26T04:17:46;7.20;99.90
76172;DHT22;64929;51.178;4.138;2024-02-26T04:20:14;7.30;99.90
76172;DHT22;64929;51.178;4.138;2024-02-26T04:22:41;7.20;99.90
76172;DHT22;64929;51.178;4.138;2024-02-26T04:25:07;7.20;99.90
76172;DHT22;64929;51.178;4.138;2024-02-26T04:27:33;7.40;99.90
76172;DHT22;64929;51.178;4.138;2024-02-26T04:29:59;7.50;99.90
76172;DHT22;64929;51.178;4.138;2024-02-26T04:32:25;7.50;99.90
76172;DHT22;64929;51.178;4.138;2024-02-26T04:34:50;7.50;99.90
76172;DHT22;64929;51.178;4.138;2024-02-26T04:37:16;7.40;99.90
76172;DHT22;64929;51.178;4.138;2024-02-26T04:39:42;7.40;99.90
76172;DHT22;64929;51.178;4.138;2024-02-26T04:42:07;7.40;99.90
76172;DHT22;64929;51.178;4.138;2024-02-26T04:44:33;7.50;99.90
76172;DHT22;64929;51.178;4.138;2024-02-26T04:46:59;7.40;99.90
76172;DHT22;64929;51.178;4.138;2024-02-26T04:49:27;7.40;99.90
76172;DHT22;64929;51.178;4.138;2024-02-26T04:51:52;7.50;99.90
76172;DHT22;64929;51.178;4.138;2024-02-26T04:54:19;7.50;99.90
76172;DHT22;64929;51.178;4.138;2024-02-26T04:56:45;7.40;99.90
76172;DHT22;64929;51.178;4.138;2024-02-26T04:59:11;7.50;99.90
76172;DHT22;64929;51.178;4.138;2024-02-26T05:01:36;7.50;99.90
76172;DHT22;64929;51.178;4.138;2024-02-26T05:04:02;7.40;99.90
76172;DHT22;64929;51.178;4.138;2024-02-26T05:06:31;7.40;99.90
76172;DHT22;64929;51.178;4.138;2024-02-26T05:08:56;7.50;99.90
76172;DHT22;64929;51.178;4.138;2024-02-26T05:11:22;7.50;99.90
76172;DHT22;64929;51.178;4.138;2024-02-26T05:13:48;7.50;99.90
76172;DHT22;64929;51.178;4.138;2024-02-26T05:16:14;7.50;99.90
76172;DHT22;64929;51.178;4.138;2024-02-26T05:18:39;7.40;99.90
76172;DHT22;64929;51.178;4.138;2024-02-26T05:21:05;7.40;99.90
76172;DHT22;64929;51.178;4.138;2024-02-26T05:23:31;7.40;99.90
76172;DHT22;64929;51.178;4.138;2024-02-26T05:25:57;7.40;99.90
76172;DHT22;64929;51.178;4.138;2024-02-26T05:28:22;7.40;99.90
76172;DHT22;64929;51.178;4.138;2024-02-26T05:30:48;7.30;99.90
76172;DHT22;64929;51.178;4.138;2024-02-26T05:33:14;7.30;99.90
76172;DHT22;64929;51.178;4.138;2024-02-26T05:35:40;7.30;99.90
76172;DHT22;64929;51.178;4.138;2024-02-26T05:38:06;7.30;99.90
76172;DHT22;64929;51.178;4.138;2024-02-26T05:40:31;7.50;99.90
76172;DHT22;64929;51.178;4.138;2024-02-26T05:42:57;7.50;99.90
76172;DHT22;64929;51.178;4.138;2024-02-26T05:45:23;7.40;99.90
76172;DHT22;64929;51.178;4.138;2024-02-26T05:47:48;7.40;99.90
76172;DHT22;64929;51.178;4.138;2024-02-26T05:50:15;7.40;99.90
76172;DHT22;64929;51.178;4.138;2024-02-26T05:52:42;7.40;99.90
76172;DHT22;64929;51.178;4.138;2024-02-26T05:55:08;7.30;99.90
76172;DHT22;64929;51.178;4.138;2024-02-26T05:57:34;7.30;99.90
76172;DHT22;64929;51.178;4.138;2024-02-26T06:00:00;7.30;99.90
76172;DHT22;64929;51.178;4.138;2024-02-26T06:02:32;7.30;99.90
76172;DHT22;64929;51.178;4.138;2024-02-26T06:04:58;7.30;99.90
76172;DHT22;64929;51.178;4.138;2024-02-26T06:07:24;7.30;99.90
76172;DHT22;64929;51.178;4.138;2024-02-26T06:09:50;7.40;99.90
76172;DHT22;64929;51.178;4.138;2024-02-26T06:12:15;7.20;99.90
76172;DHT22;64929;51.178;4.138;2024-02-26T06:14:42;7.20;99.90
76172;DHT22;64929;51.178;4.138;2024-02-26T06:17:08;7.30;99.90
76172;DHT22;64929;51.178;4.138;2024-02-26T06:19:34;7.20;99.90
76172;DHT22;64929;51.178;4.138;2024-02-26T06:22:00;7.20;99.90
76172;DHT22;64929;51.178;4.138;2024-02-26T06:24:25;7.10;99.90
76172;DHT22;64929;51.178;4.138;2024-02-26T06:26:51;7.20;99.90
76172;DHT22;64929;51.178;4.138;2024-02-26T06:29:17;7.20;99.90
76172;DHT22;64929;51.178;4.138;2024-02-26T06:31:43;7.30;99.90
76172;DHT22;64929;51.178;4.138;2024-02-26T06:34:09;7.30;99.90
76172;DHT22;64929;51.178;4.138;2024-02-26T06:36:34;7.30;99.90
76172;DHT22;64929;51.178;4.138;2024-02-26T06:39:00;7.10;99.90
76172;DHT22;64929;51.178;4.138;2024-02-26T06:41:26;7.10;99.90
76172;DHT22;64929;51.178;4.138;2024-02-26T06:43:55;6.90;99.90
76172;DHT22;64929;51.178;4.138;2024-02-26T06:46:21;7.00;99.90
76172;DHT22;64929;51.178;4.138;2024-02-26T06:48:48;7.00;99.90
76172;DHT22;64929;51.178;4.138;2024-02-26T06:51:14;7.10;99.90
76172;DHT22;64929;51.178;4.138;2024-02-26T06:53:40;7.10;99.90
76172;DHT22;64929;51.178;4.138;2024-02-26T06:56:06;7.00;99.90
76172;DHT22;64929;51.178;4.138;2024-02-26T06:58:31;7.10;99.90
76172;DHT22;64929;51.178;4.138;2024-02-26T07:00:58;7.10;99.90
76172;DHT22;64929;51.178;4.138;2024-02-26T07:03:24;7.00;99.90
76172;DHT22;64929;51.178;4.138;2024-02-26T07:05:51;7.00;99.90
76172;DHT22;64929;51.178;4.138;2024-02-26T07:08:17;7.00;99.90
76172;DHT22;64929;51.178;4.138;2024-02-26T07:10:43;7.00;99.90
76172;DHT22;64929;51.178;4.138;2024-02-26T07:13:09;6.90;99.90
76172;DHT22;64929;51.178;4.138;2024-02-26T07:15:35;7.00;99.90
76172;DHT22;64929;51.178;4.138;2024-02-26T07:18:00;7.10;99.90
76172;DHT22;64929;51.178;4.138;2024-02-26T07:20:29;7.10;99.90
76172;DHT22;64929;51.178;4.138;2024-02-26T07:22:56;7.20;99.90
76172;DHT22;64929;51.178;4.138;2024-02-26T07:25:22;7.20;99.90
76172;DHT22;64929;51.178;4.138;2024-02-26T07:27:48;7.20;99.90
76172;DHT22;64929;51.178;4.138;2024-02-26T07:30:14;7.20;99.90
76172;DHT22;64929;51.178;4.138;2024-02-26T07:32:40;7.20;99.90
76172;DHT22;64929;51.178;4.138;2024-02-26T07:35:06;7.20;99.90
76172;DHT22;64929;51.178;4.138;2024-02-26T07:37:32;7.20;99.90
76172;DHT22;64929;51.178;4.138;2024-02-26T07:39:57;7.20;99.90
76172;DHT22;64929;51.178;4.138;2024-02-26T07:42:23;7.30;99.90
76172;DHT22;64929;51.178;4.138;2024-02-26T07:44:49;7.20;99.90
76172;DHT22;64929;51.178;4.138;2024-02-26T07:47:14;7.30;99.90
76172;DHT22;64929;51.178;4.138;2024-02-26T07:49:41;7.30;99.90
76172;DHT22;64929;51.178;4.138;2024-02-26T07:52:06;7.40;99.90
76172;DHT22;64929;51.178;4.138;2024-02-26T07:54:32;7.30;99.90
76172;DHT22;64929;51.178;4.138;2024-02-26T07:56:58;7.20;99.90
76172;DHT22;64929;51.178;4.138;2024-02-26T07:59:23;7.10;99.90
76172;DHT22;64929;51.178;4.138;2024-02-26T08:01:52;7.10;99.90
76172;DHT22;64929;51.178;4.138;2024-02-26T08:04:18;7.00;99.90
76172;DHT22;64929;51.178;4.138;2024-02-26T08:06:44;7.00;99.90
76172;DHT22;64929;51.178;4.138;2024-02-26T08:09:10;7.10;99.90
76172;DHT22;64929;51.178;4.138;2024-02-26T08:11:36;7.10;99.90
76172;DHT22;64929;51.178;4.138;2024-02-26T08:14:01;7.20;99.90
76172;DHT22;64929;51.178;4.138;2024-02-26T08:16:27;7.30;99.90
76172;DHT22;64929;51.178;4.138;2024-02-26T08:18:53;7.20;99.90
76172;DHT22;64929;51.178;4.138;2024-02-26T08:21:19;7.20;99.90
76172;DHT22;64929;51.178;4.138;2024-02-26T08:23:45;7.10;99.90
76172;DHT22;64929;51.178;4.138;2024-02-26T08:26:11;7.20;99.90
76172;DHT22;64929;51.178;4.138;2024-02-26T08:28:37;7.20;99.90
76172;DHT22;64929;51.178;4.138;2024-02-26T08:31:03;7.10;99.90
76172;DHT22;64929;51.178;4.138;2024-02-26T08:33:30;7.10;99.90
76172;DHT22;64929;51.178;4.138;2024-02-26T08:35:56;7.30;99.90
76172;DHT22;64929;51.178;4.138;2024-02-26T08:38:22;7.30;99.90
76172;DHT22;64929;51.178;4.138;2024-02-26T08:40:48;7.30;99.90
76172;DHT22;64929;51.178;4.138;2024-02-26T08:43:14;7.20;99.90
76172;DHT22;64929;51.178;4.138;2024-02-26T08:45:40;7.30;99.90
76172;DHT22;64929;51.178;4.138;2024-02-26T08:48:06;7.20;99.90
76172;DHT22;64929;51.178;4.138;2024-02-26T08:50:33;7.10;99.90
76172;DHT22;64929;51.178;4.138;2024-02-26T08:52:58;7.20;99.90
76172;DHT22;64929;51.178;4.138;2024-02-26T08:55:26;7.20;99.90
76172;DHT22;64929;51.178;4.138;2024-02-26T08:57:52;7.10;99.90
76172;DHT22;64929;51.178;4.138;2024-02-26T09:00:18;7.10;99.90
76172;DHT22;64929;51.178;4.138;2024-02-26T09:02:46;7.10;99.90
76172;DHT22;64929;51.178;4.138;2024-02-26T09:05:12;7.00;99.90
76172;DHT22;64929;51.178;4.138;2024-02-26T09:07:38;7.20;99.90
76172;DHT22;64929;51.178;4.138;2024-02-26T09:10:05;7.10;99.90
76172;DHT22;64929;51.178;4.138;2024-02-26T09:12:33;7.10;99.90
76172;DHT22;64929;51.178;4.138;2024-02-26T09:14:59;7.20;99.90
76172;DHT22;64929;51.178;4.138;2024-02-26T09:17:25;7.20;99.90
76172;DHT22;64929;51.178;4.138;2024-02-26T09:19:50;7.20;99.90
76172;DHT22;64929;51.178;4.138;2024-02-26T09:22:16;7.20;99.90
76172;DHT22;64929;51.178;4.138;2024-02-26T09:24:42;7.10;99.90
76172;DHT22;64929;51.178;4.138;2024-02-26T09:27:08;7.00;99.90
76172;DHT22;64929;51.178;4.138;2024-02-26T09:29:35;7.10;99.90
76172;DHT22;64929;51.178;4.138;2024-02-26T09:32:01;7.10;99.90
76172;DHT22;64929;51.178;4.138;2024-02-26T09:34:28;7.10;99.90
76172;DHT22;64929;51.178;4.138;2024-02-26T09:36:53;6.90;99.90
76172;DHT22;64929;51.178;4.138;2024-02-26T09:39:19;6.90;99.90
76172;DHT22;64929;51.178;4.138;2024-02-26T09:41:47;6.80;99.90
76172;DHT22;64929;51.178;4.138;2024-02-26T09:44:19;6.90;99.90
76172;DHT22;64929;51.178;4.138;2024-02-26T09:46:48;7.00;99.90
76172;DHT22;64929;51.178;4.138;2024-02-26T09:49:18;7.10;99.90
76172;DHT22;64929;51.178;4.138;2024-02-26T09:51:45;7.30;99.90
76172;DHT22;64929;51.178;4.138;2024-02-26T09:54:13;7.20;99.90
76172;DHT22;64929;51.178;4.138;2024-02-26T09:56:40;7.10;99.90
76172;DHT22;64929;51.178;4.138;2024-02-26T09:59:15;7.10;99.90
76172;DHT22;64929;51.178;4.138;2024-02-26T10:01:42;7.00;99.90
76172;DHT22;64929;51.178;4.138;2024-02-26T10:04:09;7.10;99.90
76172;DHT22;64929;51.178;4.138;2024-02-26T10:06:37;7.20;99.90
76172;DHT22;64929;51.178;4.138;2024-02-26T10:09:03;7.30;99.90
76172;DHT22;64929;51.178;4.138;2024-02-26T10:11:32;7.30;99.90
76172;DHT22;64929;51.178;4.138;2024-02-26T10:13:58;7.20;99.90
76172;DHT22;64929;51.178;4.138;2024-02-26T10:16:25;7.20;99.90
76172;DHT22;64929;51.178;4.138;2024-02-26T10:18:52;7.10;99.90
76172;DHT22;64929;51.178;4.138;2024-02-26T10:21:20;7.20;99.90
76172;DHT22;64929;51.178;4.138;2024-02-26T10:23:46;7.20;99.90
76172;DHT22;64929;51.178;4.138;2024-02-26T10:26:14;7.10;99.90
76172;DHT22;64929;51.178;4.138;2024-02-26T10:28:42;7.10;99.90
76172;DHT22;64929;51.178;4.138;2024-02-26T10:31:08;7.00;99.90
76172;DHT22;64929;51.178;4.138;2024-02-26T10:33:35;7.00;99.90
76172;DHT22;64929;51.178;4.138;2024-02-26T10:36:03;7.00;99.90
76172;DHT22;64929;51.178;4.138;2024-02-26T10:38:30;6.90;99.90
76172;DHT22;64929;51.178;4.138;2024-02-26T10:40:55;7.00;99.90
76172;DHT22;64929;51.178;4.138;2024-02-26T10:43:21;7.00;99.90
76172;DHT22;64929;51.178;4.138;2024-02-26T10:45:47;7.00;99.90
76172;DHT22;64929;51.178;4.138;2024-02-26T10:48:14;7.20;99.90
76172;DHT22;64929;51.178;4.138;2024-02-26T10:50:40;7.10;99.90
76172;DHT22;64929;51.178;4.138;2024-02-26T10:53:20;7.10;99.90
76172;DHT22;64929;51.178;4.138;2024-02-26T10:56:00;7.20;99.90
76172;DHT22;64929;51.178;4.138;2024-02-26T10:58:27;7.10;99.90
76172;DHT22;64929;51.178;4.138;2024-02-26T11:00:56;7.20;99.90
76172;DHT22;64929;51.178;4.138;2024-02-26T11:03:23;7.10;99.90
76172;DHT22;64929;51.178;4.138;2024-02-26T11:05:50;7.10;99.90
76172;DHT22;64929;51.178;4.138;2024-02-26T11:08:18;7.20;99.90
76172;DHT22;64929;51.178;4.138;2024-02-26T11:10:47;7.10;99.90
76172;DHT22;64929;51.178;4.138;2024-02-26T11:13:15;7.20;99.90
76172;DHT22;64929;51.178;4.138;2024-02-26T11:15:43;7.20;99.90
76172;DHT22;64929;51.178;4.138;2024-02-26T11:18:10;7.30;99.90
76172;DHT22;64929;51.178;4.138;2024-02-26T11:20:39;7.20;99.90
76172;DHT22;64929;51.178;4.138;2024-02-26T11:23:07;7.20;99.90
76172;DHT22;64929;51.178;4.138;2024-02-26T11:25:37;7.30;99.90
76172;DHT22;64929;51.178;4.138;2024-02-26T11:28:09;7.30;99.90
76172;DHT22;64929;51.178;4.138;2024-02-26T11:30:38;7.20;99.90
76172;DHT22;64929;51.178;4.138;2024-02-26T11:33:08;7.00;99.90
76172;DHT22;64929;51.178;4.138;2024-02-26T11:35:36;7.00;99.90
76172;DHT22;64929;51.178;4.138;2024-02-26T11:38:02;7.00;99.90
76172;DHT22;64929;51.178;4.138;2024-02-26T11:40:29;7.10;99.90
76172;DHT22;64929;51.178;4.138;2024-02-26T11:42:56;7.10;99.90
76172;DHT22;64929;51.178;4.138;2024-02-26T11:48:21;7.10;99.90
76172;DHT22;64929;51.178;4.138;2024-02-26T11:53:27;7.10;99.90
76172;DHT22;64929;51.178;4.138;2024-02-26T11:59:04;7.00;99.90
76172;DHT22;64929;51.178;4.138;2024-02-26T12:04:19;7.00;99.90
76172;DHT22;64929;51.178;4.138;2024-02-26T12:06:52;7.10;99.90
76172;DHT22;64929;51.178;4.138;2024-02-26T12:09:35;7.10;99.90
76172;DHT22;64929;51.178;4.138;2024-02-26T12:12:03;7.20;99.90
76172;DHT22;64929;51.178;4.138;2024-02-26T12:14:29;7.30;99.90
76172;DHT22;64929;51.178;4.138;2024-02-26T12:16:58;7.30;99.90
76172;DHT22;64929;51.178;4.138;2024-02-26T12:19:24;7.40;99.90
76172;DHT22;64929;51.178;4.138;2024-02-26T12:21:53;7.40;99.90
76172;DHT22;64929;51.178;4.138;2024-02-26T12:24:22;7.40;99.90
76172;DHT22;64929;51.178;4.138;2024-02-26T12:26:48;7.30;99.90
76172;DHT22;64929;51.178;4.138;2024-02-26T12:29:14;7.40;99.90
76172;DHT22;64929;51.178;4.138;2024-02-26T12:31:40;7.40;99.90
76172;DHT22;64929;51.178;4.138;2024-02-26T12:34:07;7.50;99.90
76172;DHT22;64929;51.178;4.138;2024-02-26T12:36:35;7.50;99.90
76172;DHT22;64929;51.178;4.138;2024-02-26T12:39:02;7.60;99.90
76172;DHT22;64929;51.178;4.138;2024-02-26T12:41:28;7.50;99.90
76172;DHT22;64929;51.178;4.138;2024-02-26T12:43:56;7.40;99.90
76172;DHT22;64929;51.178;4.138;2024-02-26T12:46:23;7.30;99.90
76172;DHT22;64929;51.178;4.138;2024-02-26T12:48:48;7.30;99.90
76172;DHT22;64929;51.178;4.138;2024-02-26T12:51:16;7.30;99.90
76172;DHT22;64929;51.178;4.138;2024-02-26T12:53:44;7.30;99.90
76172;DHT22;64929;51.178;4.138;2024-02-26T12:56:10;7.40;99.90
76172;DHT22;64929;51.178;4.138;2024-02-26T12:58:39;7.40;99.90
76172;DHT22;64929;51.178;4.138;2024-02-26T13:01:06;7.40;99.90
76172;DHT22;64929;51.178;4.138;2024-02-26T13:03:34;7.30;99.90
76172;DHT22;64929;51.178;4.138;2024-02-26T13:06:01;7.20;99.90
76172;DHT22;64929;51.178;4.138;2024-02-26T13:08:27;7.20;99.90
76172;DHT22;64929;51.178;4.138;2024-02-26T13:10:53;7.20;99.90
76172;DHT22;64929;51.178;4.138;2024-02-26T13:13:18;7.10;99.90
76172;DHT22;64929;51.178;4.138;2024-02-26T13:15:45;7.20;99.90
76172;DHT22;64929;51.178;4.138;2024-02-26T13:18:13;7.20;99.90
76172;DHT22;64929;51.178;4.138;2024-02-26T13:20:39;7.20;99.90
76172;DHT22;64929;51.178;4.138;2024-02-26T13:23:11;7.20;99.90
76172;DHT22;64929;51.178;4.138;2024-02-26T13:25:37;7.30;99.90
76172;DHT22;64929;51.178;4.138;2024-02-26T13:28:13;7.30;99.90
76172;DHT22;64929;51.178;4.138;2024-02-26T13:30:39;7.30;99.90
76172;DHT22;64929;51.178;4.138;2024-02-26T13:33:12;7.30;99.90
76172;DHT22;64929;51.178;4.138;2024-02-26T13:35:41;7.50;99.90
76172;DHT22;64929;51.178;4.138;2024-02-26T13:38:07;7.30;99.90
76172;DHT22;64929;51.178;4.138;2024-02-26T13:40:33;7.40;99.90
76172;DHT22;64929;51.178;4.138;2024-02-26T13:43:02;7.40;99.90
76172;DHT22;64929;51.178;4.138;2024-02-26T13:45:28;7.30;99.90
76172;DHT22;64929;51.178;4.138;2024-02-26T13:47:54;7.30;99.90
76172;DHT22;64929;51.178;4.138;2024-02-26T13:50:19;7.30;99.90
76172;DHT22;64929;51.178;4.138;2024-02-26T13:52:47;7.20;99.90
76172;DHT22;64929;51.178;4.138;2024-02-26T13:55:18;7.20;99.90
76172;DHT22;64929;51.178;4.138;2024-02-26T13:57:45;7.20;99.90
76172;DHT22;64929;51.178;4.138;2024-02-26T14:00:11;7.30;99.90
76172;DHT22;64929;51.178;4.138;2024-02-26T14:02:36;7.20;99.90
76172;DHT22;64929;51.178;4.138;2024-02-26T14:05:02;7.30;99.90
76172;DHT22;64929;51.178;4.138;2024-02-26T14:07:29;7.30;99.90
76172;DHT22;64929;51.178;4.138;2024-02-26T14:09:58;7.30;99.90
76172;DHT22;64929;51.178;4.138;2024-02-26T14:12:23;7.40;99.90
76172;DHT22;64929;51.178;4.138;2024-02-26T14:14:49;7.30;99.90
76172;DHT22;64929;51.178;4.138;2024-02-26T14:17:15;7.30;99.90
76172;DHT22;64929;51.178;4.138;2024-02-26T14:19:41;7.20;99.90
76172;DHT22;64929;51.178;4.138;2024-02-26T14:22:13;7.40;99.90
76172;DHT22;64929;51.178;4.138;2024-02-26T14:24:39;7.30;99.90
76172;DHT22;64929;51.178;4.138;2024-02-26T14:27:06;7.20;99.90
76172;DHT22;64929;51.178;4.138;2024-02-26T14:29:33;7.20;99.90
76172;DHT22;64929;51.178;4.138;2024-02-26T14:31:59;7.20;99.90
76172;DHT22;64929;51.178;4.138;2024-02-26T14:34:24;7.10;99.90
76172;DHT22;64929;51.178;4.138;2024-02-26T14:36:50;7.20;99.90
76172;DHT22;64929;51.178;4.138;2024-02-26T14:39:15;7.20;99.90
76172;DHT22;64929;51.178;4.138;2024-02-26T14:41:41;7.20;99.90
76172;DHT22;64929;51.178;4.138;2024-02-26T14:44:08;7.40;99.90
76172;DHT22;64929;51.178;4.138;2024-02-26T14:46:34;7.40;99.90
76172;DHT22;64929;51.178;4.138;2024-02-26T14:49:00;7.30;99.90
76172;DHT22;64929;51.178;4.138;2024-02-26T14:51:26;7.20;99.90
76172;DHT22;64929;51.178;4.138;2024-02-26T14:53:52;7.20;99.90
76172;DHT22;64929;51.178;4.138;2024-02-26T14:56:18;7.30;99.90
76172;DHT22;64929;51.178;4.138;2024-02-26T14:58:44;7.40;99.90
76172;DHT22;64929;51.178;4.138;2024-02-26T15:01:11;7.40;99.90
76172;DHT22;64929;51.178;4.138;2024-02-26T15:03:37;7.50;99.90
76172;DHT22;64929;51.178;4.138;2024-02-26T15:06:03;7.40;99.90
76172;DHT22;64929;51.178;4.138;2024-02-26T15:08:29;7.40;99.90
76172;DHT22;64929;51.178;4.138;2024-02-26T15:10:55;7.50;99.90
76172;DHT22;64929;51.178;4.138;2024-02-26T15:13:20;7.50;99.90
76172;DHT22;64929;51.178;4.138;2024-02-26T15:15:46;7.50;99.90
76172;DHT22;64929;51.178;4.138;2024-02-26T15:18:12;7.50;99.90
76172;DHT22;64929;51.178;4.138;2024-02-26T15:20:42;7.50;99.90
76172;DHT22;64929;51.178;4.138;2024-02-26T15:23:11;7.50;99.90
76172;DHT22;64929;51.178;4.138;2024-02-26T15:25:37;7.60;99.90
76172;DHT22;64929;51.178;4.138;2024-02-26T15:28:04;7.60;99.90
76172;DHT22;64929;51.178;4.138;2024-02-26T15:30:31;7.70;99.90
76172;DHT22;64929;51.178;4.138;2024-02-26T15:32:58;7.80;99.90
76172;DHT22;64929;51.178;4.138;2024-02-26T15:35:24;7.60;99.90
76172;DHT22;64929;51.178;4.138;2024-02-26T15:37:49;7.60;99.90
76172;DHT22;64929;51.178;4.138;2024-02-26T15:40:15;7.60;99.90
76172;DHT22;64929;51.178;4.138;2024-02-26T15:42:41;7.70;99.90
76172;DHT22;64929;51.178;4.138;2024-02-26T15:45:07;7.60;99.90
76172;DHT22;64929;51.178;4.138;2024-02-26T15:47:33;7.60;99.90
76172;DHT22;64929;51.178;4.138;2024-02-26T15:50:00;7.60;99.90
76172;DHT22;64929;51.178;4.138;2024-02-26T15:52:27;7.60;99.90